Time;durP1;ratioP1;P1;durP2;ratioP2;P2;SDS_P1;SDS_P2;PMS_P1;PMS_P2;Temp;Humidity;BMP_temperature;BMP_pressure;BME280_temperature;BME280_humidity;BME280_pressure;Samples;Min_cycle;Max_cycle;Signal;HPM_P1;HPM_P2
2022/04/16 00:00:27;;;;;;;13.57;5.72;;;;;;;;;;5017779;28;20077;-74
2022/04/16 00:02:54;;;;;;;17.40;6.35;;;;;;;;;;5029969;28;20340;-76
2022/04/16 00:05:23;;;;;;;14.85;6.22;;;;;;;;;;5028718;28;20037;-75
2022/04/16 00:08:06;;;;;;;10.00;5.43;;;;;;;;;;5019290;28;20038;-75
2022/04/16 00:10:33;;;;;;;13.93;5.30;;;;;;;;;;5016009;28;20037;-75
2022/04/16 00:12:59;;;;;;;18.75;6.05;;;;;;;;;;5022730;28;20033;-75
2022/04/16 00:15:26;;;;;;;13.50;5.03;;;;;;;;;;5028789;28;20090;-76
2022/04/16 00:17:53;;;;;;;12.60;5.13;;;;;;;;;;5029669;28;20053;-75
2022/04/16 00:20:19;;;;;;;17.63;5.40;;;;;;;;;;5017255;28;20153;-76
2022/04/16 00:22:45;;;;;;;16.80;5.93;;;;;;;;;;5011841;28;20030;-75
2022/04/16 00:25:13;;;;;;;13.90;6.22;;;;;;;;;;5013834;28;20061;-75
2022/04/16 00:27:39;;;;;;;13.95;5.88;;;;;;;;;;5029350;28;20510;-76
2022/04/16 00:30:05;;;;;;;11.02;4.80;;;;;;;;;;5029685;28;20482;-75
2022/04/16 00:32:32;;;;;;;14.05;5.47;;;;;;;;;;5028647;28;20112;-75
2022/04/16 00:34:58;;;;;;;9.85;4.97;;;;;;;;;;4994024;28;20584;-75
2022/04/16 00:37:24;;;;;;;13.90;4.90;;;;;;;;;;5010565;28;20026;-74
2022/04/16 00:39:50;;;;;;;13.38;5.22;;;;;;;;;;5017439;28;20045;-75
2022/04/16 00:42:16;;;;;;;13.50;5.10;;;;;;;;;;5016118;28;20084;-75
2022/04/16 00:44:42;;;;;;;9.35;4.90;;;;;;;;;;5010139;28;20467;-75
2022/04/16 00:47:09;;;;;;;13.57;5.63;;;;;;;;;;5018217;28;20037;-75
2022/04/16 00:49:35;;;;;;;11.18;4.97;;;;;;;;;;5029604;28;20116;-75
2022/04/16 00:52:01;;;;;;;16.27;5.05;;;;;;;;;;5028381;28;20037;-75
2022/04/16 00:54:27;;;;;;;12.55;4.75;;;;;;;;;;5015546;28;20034;-75
2022/04/16 00:56:54;;;;;;;13.02;4.28;;;;;;;;;;5020636;28;20044;-75
2022/04/16 00:59:20;;;;;;;13.15;4.88;;;;;;;;;;5035910;28;20037;-75
2022/04/16 01:01:46;;;;;;;9.45;3.55;;;;;;;;;;5023820;28;20153;-75
2022/04/16 01:04:13;;;;;;;13.20;4.90;;;;;;;;;;5021240;28;20442;-75
2022/04/16 01:06:40;;;;;;;13.15;4.43;;;;;;;;;;5029188;28;20156;-75
2022/04/16 01:09:06;;;;;;;14.68;5.03;;;;;;;;;;5023625;28;20370;-75
2022/04/16 01:11:33;;;;;;;17.45;6.50;;;;;;;;;;5028966;28;20032;-76
2022/04/16 01:14:02;;;;;;;14.20;6.75;;;;;;;;;;5025483;28;20144;-75
2022/04/16 01:16:30;;;;;;;13.82;6.85;;;;;;;;;;5021398;28;20029;-75
2022/04/16 01:18:56;;;;;;;15.15;6.95;;;;;;;;;;5028318;28;20029;-75
2022/04/16 01:21:22;;;;;;;15.10;6.63;;;;;;;;;;5028697;28;20502;-75
2022/04/16 01:23:48;;;;;;;17.88;6.75;;;;;;;;;;5016507;28;20059;-75
2022/04/16 01:26:15;;;;;;;16.73;6.68;;;;;;;;;;5029950;28;20091;-75
2022/04/16 01:28:41;;;;;;;12.48;6.65;;;;;;;;;;5028408;28;20045;-75
2022/04/16 01:31:07;;;;;;;12.50;6.25;;;;;;;;;;5028469;28;20034;-75
2022/04/16 01:33:33;;;;;;;15.38;6.28;;;;;;;;;;5027138;28;20463;-75
2022/04/16 01:36:00;;;;;;;14.85;5.35;;;;;;;;;;5027877;28;20084;-75
2022/04/16 01:38:26;;;;;;;18.15;6.25;;;;;;;;;;5027071;28;20075;-76
2022/04/16 01:40:58;;;;;;;15.82;5.57;;;;;;;;;;5028749;28;20033;-75
2022/04/16 01:43:25;;;;;;;11.15;4.88;;;;;;;;;;5007930;28;20030;-75
2022/04/16 01:45:52;;;;;;;12.98;4.65;;;;;;;;;;5024974;28;20045;-75
2022/04/16 01:48:19;;;;;;;10.85;4.68;;;;;;;;;;5028310;28;20083;-76
2022/04/16 01:50:46;;;;;;;12.10;4.97;;;;;;;;;;5025394;28;20034;-76
2022/04/16 01:53:12;;;;;;;10.07;5.00;;;;;;;;;;5028678;28;20367;-75
2022/04/16 01:55:38;;;;;;;12.93;5.53;;;;;;;;;;5025444;28;20041;-75
2022/04/16 01:58:05;;;;;;;18.73;7.05;;;;;;;;;;5012954;28;20033;-76
2022/04/16 02:00:31;;;;;;;21.48;7.97;;;;;;;;;;5020276;28;20433;-75
2022/04/16 02:02:57;;;;;;;14.57;5.95;;;;;;;;;;5028330;28;20091;-75
2022/04/16 02:05:24;;;;;;;16.52;6.85;;;;;;;;;;5025760;28;20045;-76
2022/04/16 02:07:50;;;;;;;13.32;6.90;;;;;;;;;;5028362;28;20029;-75
2022/04/16 02:10:16;;;;;;;16.77;6.97;;;;;;;;;;5021105;28;20040;-75
2022/04/16 02:12:43;;;;;;;17.88;6.28;;;;;;;;;;5017585;28;20033;-76
2022/04/16 02:15:10;;;;;;;12.15;5.90;;;;;;;;;;5025812;28;20146;-75
2022/04/16 02:17:37;;;;;;;16.23;8.00;;;;;;;;;;5027596;28;20029;-75
2022/04/16 02:20:07;;;;;;;16.58;6.97;;;;;;;;;;5012645;28;20371;-77
2022/04/16 02:22:42;;;;;;;13.85;6.78;;;;;;;;;;5024926;28;20075;-75
2022/04/16 02:25:08;;;;;;;17.23;6.82;;;;;;;;;;5024247;28;20053;-75
2022/04/16 02:27:35;;;;;;;16.63;8.38;;;;;;;;;;5033539;28;20029;-75
2022/04/16 02:30:03;;;;;;;28.35;14.15;;;;;;;;;;5028233;28;20479;-76
2022/04/16 02:32:29;;;;;;;35.67;17.52;;;;;;;;;;5016807;28;20040;-75
2022/04/16 02:34:56;;;;;;;30.98;14.23;;;;;;;;;;5022826;28;20107;-75
2022/04/16 02:37:22;;;;;;;27.65;13.10;;;;;;;;;;5015952;28;20640;-75
2022/04/16 02:39:48;;;;;;;23.95;12.15;;;;;;;;;;5029600;28;20030;-76
2022/04/16 02:42:18;;;;;;;22.75;11.15;;;;;;;;;;5025084;28;20136;-76
2022/04/16 02:47:30;;;;;;;20.27;12.27;;;;;;;;;;5015478;28;20087;-75
2022/04/16 02:49:56;;;;;;;19.10;11.13;;;;;;;;;;5025123;28;20352;-75
2022/04/16 02:52:22;;;;;;;23.05;11.90;;;;;;;;;;5011993;28;20556;-75
2022/04/16 02:54:48;;;;;;;21.02;10.80;;;;;;;;;;5025262;28;20091;-75
2022/04/16 02:57:15;;;;;;;20.60;10.43;;;;;;;;;;5031515;28;20418;-75
2022/04/16 02:59:41;;;;;;;17.08;10.40;;;;;;;;;;5030783;28;20620;-75
2022/04/16 03:02:07;;;;;;;20.10;9.68;;;;;;;;;;5031436;28;20112;-76
2022/04/16 03:04:33;;;;;;;22.85;11.57;;;;;;;;;;5031945;28;20033;-75
2022/04/16 03:06:59;;;;;;;43.13;20.55;;;;;;;;;;5031341;28;20614;-76
2022/04/16 03:09:25;;;;;;;38.53;21.77;;;;;;;;;;5031336;28;20033;-75
2022/04/16 03:11:51;;;;;;;37.60;21.23;;;;;;;;;;5020139;28;20741;-76
2022/04/16 03:19:46;;;;;;;35.70;19.08;;;;;;;;;;5026286;28;20044;-75
2022/04/16 03:22:13;;;;;;;31.13;17.35;;;;;;;;;;5031050;28;20033;-75
2022/04/16 03:24:39;;;;;;;24.30;14.32;;;;;;;;;;5023046;28;20057;-75
2022/04/16 03:27:05;;;;;;;22.60;13.52;;;;;;;;;;5031096;28;20097;-75
2022/04/16 03:29:33;;;;;;;21.80;11.10;;;;;;;;;;5022062;28;20084;-76
2022/04/16 03:31:59;;;;;;;20.30;8.68;;;;;;;;;;5030097;28;20033;-75
2022/04/16 03:34:25;;;;;;;13.85;7.18;;;;;;;;;;5020691;28;20499;-76
2022/04/16 03:36:51;;;;;;;21.05;8.05;;;;;;;;;;5043858;28;20068;-76
2022/04/16 03:39:17;;;;;;;16.35;7.53;;;;;;;;;;5035162;28;20061;-76
2022/04/16 03:41:43;;;;;;;10.95;6.05;;;;;;;;;;5026383;28;20108;-76
2022/04/16 03:44:09;;;;;;;13.95;7.63;;;;;;;;;;5031018;28;20041;-76
2022/04/16 03:46:35;;;;;;;13.57;6.70;;;;;;;;;;5013934;28;20037;-75
2022/04/16 03:49:01;;;;;;;11.40;6.40;;;;;;;;;;5027703;28;20030;-75
2022/04/16 03:51:27;;;;;;;16.98;6.15;;;;;;;;;;5019490;28;20033;-75
2022/04/16 03:53:53;;;;;;;11.50;4.78;;;;;;;;;;5010979;28;20168;-75
2022/04/16 04:01:48;;;;;;;12.05;4.80;;;;;;;;;;5030364;28;20107;-75
2022/04/16 04:04:14;;;;;;;12.73;5.97;;;;;;;;;;5030008;28;20104;-75
2022/04/16 04:06:40;;;;;;;16.60;6.45;;;;;;;;;;5019391;28;20422;-75
2022/04/16 04:09:07;;;;;;;14.40;6.53;;;;;;;;;;5029198;28;20037;-74
2022/04/16 04:11:33;;;;;;;13.75;7.15;;;;;;;;;;5012589;28;20443;-75
2022/04/16 04:13:59;;;;;;;12.25;6.65;;;;;;;;;;5016120;28;20045;-75
2022/04/16 04:16:25;;;;;;;16.10;7.32;;;;;;;;;;5022045;28;20379;-76
2022/04/16 04:18:51;;;;;;;12.82;7.55;;;;;;;;;;5029275;28;20044;-75
2022/04/16 04:21:17;;;;;;;14.77;6.93;;;;;;;;;;5030135;28;20060;-76
2022/04/16 04:23:43;;;;;;;16.00;6.93;;;;;;;;;;5032184;28;20049;-75
2022/04/16 04:26:09;;;;;;;14.65;7.80;;;;;;;;;;5039564;28;20033;-75
2022/04/16 04:28:35;;;;;;;13.60;6.53;;;;;;;;;;5010378;28;20048;-75
2022/04/16 04:31:01;;;;;;;13.07;6.43;;;;;;;;;;5020163;28;20593;-75
2022/04/16 04:33:27;;;;;;;9.95;5.93;;;;;;;;;;5010643;28;20039;-76
2022/04/16 04:35:53;;;;;;;14.60;5.82;;;;;;;;;;5013233;28;20029;-75
2022/04/16 04:38:19;;;;;;;11.95;5.70;;;;;;;;;;5010460;28;20842;-75
2022/04/16 04:40:45;;;;;;;12.48;5.55;;;;;;;;;;5015234;28;20029;-76
2022/04/16 04:43:12;;;;;;;11.25;5.47;;;;;;;;;;5029888;28;20466;-76
2022/04/16 04:45:38;;;;;;;14.88;6.35;;;;;;;;;;5020962;28;20087;-76
2022/04/16 04:48:05;;;;;;;13.10;5.75;;;;;;;;;;5028497;28;20112;-75
2022/04/16 04:50:31;;;;;;;12.20;6.00;;;;;;;;;;5011522;28;20041;-75
2022/04/16 04:52:57;;;;;;;17.90;9.73;;;;;;;;;;5029077;28;20064;-75
2022/04/16 04:55:23;;;;;;;20.92;10.38;;;;;;;;;;5011406;28;20064;-75
2022/04/16 04:57:54;;;;;;;15.20;6.97;;;;;;;;;;5015958;28;20516;-75
2022/04/16 05:00:20;;;;;;;19.00;7.65;;;;;;;;;;5025391;28;20034;-76
2022/04/16 05:02:50;;;;;;;17.33;7.15;;;;;;;;;;5029454;28;20036;-75
2022/04/16 05:05:18;;;;;;;19.13;6.82;;;;;;;;;;5021765;28;20392;-76
2022/04/16 05:07:44;;;;;;;17.48;6.60;;;;;;;;;;5010246;28;20034;-75
2022/04/16 05:10:10;;;;;;;13.02;6.43;;;;;;;;;;5018585;28;20084;-75
2022/04/16 05:12:36;;;;;;;17.02;7.80;;;;;;;;;;5028873;28;20029;-75
2022/04/16 05:15:04;;;;;;;12.43;6.32;;;;;;;;;;5029052;28;20033;-76
2022/04/16 05:17:30;;;;;;;10.63;6.63;;;;;;;;;;5028704;28;20040;-76
2022/04/16 05:19:56;;;;;;;13.23;6.78;;;;;;;;;;5025929;28;20072;-76
2022/04/16 05:22:22;;;;;;;15.57;6.75;;;;;;;;;;5030258;28;20030;-76
2022/04/16 05:24:48;;;;;;;11.90;7.03;;;;;;;;;;5017534;28;20547;-75
2022/04/16 05:27:15;;;;;;;15.18;8.00;;;;;;;;;;5019051;28;20116;-75
2022/04/16 05:30:04;;;;;;;16.73;8.75;;;;;;;;;;5025473;28;20494;-75
2022/04/16 05:32:38;;;;;;;19.08;8.40;;;;;;;;;;5016190;28;20083;-75
2022/04/16 05:35:05;;;;;;;13.98;7.90;;;;;;;;;;5027923;28;20038;-76
2022/04/16 05:37:32;;;;;;;18.13;8.07;;;;;;;;;;5020165;28;20026;-76
2022/04/16 05:39:57;;;;;;;17.73;7.75;;;;;;;;;;5015874;28;20033;-76
2022/04/16 05:42:23;;;;;;;12.15;7.88;;;;;;;;;;5011289;28;20037;-75
2022/04/16 05:44:50;;;;;;;15.82;7.75;;;;;;;;;;5029360;28;20037;-77
2022/04/16 05:47:16;;;;;;;15.30;6.43;;;;;;;;;;5017047;28;20041;-77
2022/04/16 05:49:42;;;;;;;15.70;7.28;;;;;;;;;;5009742;28;20045;-76
2022/04/16 05:52:08;;;;;;;13.57;6.80;;;;;;;;;;5012169;28;20112;-77
2022/04/16 05:54:36;;;;;;;15.95;6.28;;;;;;;;;;5029131;28;20034;-77
2022/04/16 05:57:02;;;;;;;12.98;6.75;;;;;;;;;;5024420;28;20038;-77
2022/04/16 05:59:28;;;;;;;16.17;7.63;;;;;;;;;;5028290;28;20773;-77
2022/04/16 06:01:54;;;;;;;15.55;7.65;;;;;;;;;;5028804;28;20029;-77
2022/04/16 06:04:20;;;;;;;15.32;7.00;;;;;;;;;;5028409;28;20473;-77
2022/04/16 06:06:46;;;;;;;17.35;7.32;;;;;;;;;;5030184;28;20140;-76
2022/04/16 06:09:12;;;;;;;14.95;6.97;;;;;;;;;;5026141;28;20033;-77
2022/04/16 06:11:38;;;;;;;18.23;6.22;;;;;;;;;;5046207;28;20069;-76
2022/04/16 06:14:05;;;;;;;25.55;6.57;;;;;;;;;;5033062;28;20029;-77
2022/04/16 06:16:31;;;;;;;15.00;5.95;;;;;;;;;;5025440;28;20766;-77
2022/04/16 06:18:57;;;;;;;14.23;6.20;;;;;;;;;;5031565;28;20064;-77
2022/04/16 06:21:23;;;;;;;16.20;6.88;;;;;;;;;;5031839;28;20064;-77
2022/04/16 06:23:49;;;;;;;11.23;6.88;;;;;;;;;;5019552;28;20050;-77
2022/04/16 06:26:15;;;;;;;14.45;5.78;;;;;;;;;;5017955;28;20077;-77
2022/04/16 06:28:41;;;;;;;14.52;5.45;;;;;;;;;;5015020;28;20037;-77
2022/04/16 06:31:07;;;;;;;14.30;5.88;;;;;;;;;;5017466;28;20042;-77
2022/04/16 06:33:32;;;;;;;13.80;5.40;;;;;;;;;;5028432;28;20098;-77
2022/04/16 06:35:59;;;;;;;14.80;6.88;;;;;;;;;;5027172;28;20040;-76
2022/04/16 06:38:25;;;;;;;18.00;6.65;;;;;;;;;;5020475;28;20025;-77
2022/04/16 06:40:51;;;;;;;14.80;6.70;;;;;;;;;;5017966;28;20065;-76
2022/04/16 06:43:16;;;;;;;14.27;6.25;;;;;;;;;;5031012;28;20033;-77
2022/04/16 06:45:42;;;;;;;15.80;6.93;;;;;;;;;;5016988;28;20034;-76
2022/04/16 06:48:08;;;;;;;14.70;7.32;;;;;;;;;;5023670;28;20112;-77
2022/04/16 06:50:35;;;;;;;12.68;6.60;;;;;;;;;;5031517;28;20037;-76
2022/04/16 06:53:00;;;;;;;15.30;7.10;;;;;;;;;;5020544;28;20467;-77
2022/04/16 06:55:26;;;;;;;15.38;6.43;;;;;;;;;;5023847;28;20045;-77
2022/04/16 06:57:52;;;;;;;13.20;7.00;;;;;;;;;;5029252;28;20040;-77
2022/04/16 07:00:19;;;;;;;16.48;7.28;;;;;;;;;;5024854;28;20034;-77
2022/04/16 07:02:45;;;;;;;15.60;6.22;;;;;;;;;;5022136;28;20030;-77
2022/04/16 07:05:11;;;;;;;15.50;6.18;;;;;;;;;;5030585;28;20150;-76
2022/04/16 07:07:37;;;;;;;13.43;5.53;;;;;;;;;;5030295;28;20120;-77
2022/04/16 07:10:03;;;;;;;14.68;7.20;;;;;;;;;;5020330;28;20144;-77
2022/04/16 07:12:29;;;;;;;13.70;6.07;;;;;;;;;;5022775;28;20040;-77
2022/04/16 07:14:55;;;;;;;12.25;6.45;;;;;;;;;;5023154;28;20029;-76
2022/04/16 07:17:21;;;;;;;14.35;5.78;;;;;;;;;;5018327;28;20029;-76
2022/04/16 07:19:47;;;;;;;15.23;5.22;;;;;;;;;;5016370;28;20116;-77
2022/04/16 07:22:13;;;;;;;12.13;4.70;;;;;;;;;;5022304;28;20085;-77
2022/04/16 07:24:42;;;;;;;13.23;5.53;;;;;;;;;;5021111;28;20105;-76
2022/04/16 07:27:08;;;;;;;16.25;4.93;;;;;;;;;;5023997;28;20144;-75
2022/04/16 07:29:34;;;;;;;10.98;4.95;;;;;;;;;;5030862;28;20029;-76
2022/04/16 07:32:00;;;;;;;12.32;4.88;;;;;;;;;;5022040;28;20498;-77
2022/04/16 07:34:27;;;;;;;13.32;5.60;;;;;;;;;;5030668;28;20108;-77
2022/04/16 07:36:53;;;;;;;9.10;5.18;;;;;;;;;;5031572;28;20033;-74
2022/04/16 07:39:19;;;;;;;10.50;4.65;;;;;;;;;;5027411;28;20076;-77
2022/04/16 07:41:45;;;;;;;8.98;4.70;;;;;;;;;;5024371;28;20037;-77
2022/04/16 07:44:11;;;;;;;9.27;4.13;;;;;;;;;;5021824;28;20037;-76
2022/04/16 07:46:37;;;;;;;10.23;4.88;;;;;;;;;;5024780;28;20084;-76
2022/04/16 07:49:03;;;;;;;12.40;4.50;;;;;;;;;;5024411;28;20038;-76
2022/04/16 07:51:29;;;;;;;9.25;4.60;;;;;;;;;;5025532;28;20049;-77
2022/04/16 07:53:56;;;;;;;10.82;4.40;;;;;;;;;;5023192;28;20466;-74
2022/04/16 07:56:22;;;;;;;9.20;4.43;;;;;;;;;;5028416;28;20162;-77
2022/04/16 07:58:49;;;;;;;9.27;4.93;;;;;;;;;;5029233;28;20100;-77
2022/04/16 08:01:15;;;;;;;10.98;4.75;;;;;;;;;;5029427;28;20042;-77
2022/04/16 08:03:41;;;;;;;9.63;4.82;;;;;;;;;;5028913;28;20584;-77
2022/04/16 08:06:07;;;;;;;11.00;4.45;;;;;;;;;;5028561;28;20034;-77
2022/04/16 08:08:33;;;;;;;9.55;4.40;;;;;;;;;;5024029;28;20079;-76
2022/04/16 08:10:59;;;;;;;9.75;4.45;;;;;;;;;;5018706;28;20987;-77
2022/04/16 08:13:25;;;;;;;8.38;4.25;;;;;;;;;;5024058;28;20565;-76
2022/04/16 08:15:51;;;;;;;9.23;4.65;;;;;;;;;;5019603;28;20041;-76
2022/04/16 08:18:17;;;;;;;6.40;4.13;;;;;;;;;;5024324;28;20507;-77
2022/04/16 08:20:44;;;;;;;12.00;4.97;;;;;;;;;;5025621;28;20033;-77
2022/04/16 08:23:11;;;;;;;9.18;4.50;;;;;;;;;;5026782;28;20456;-77
2022/04/16 08:28:04;;;;;;;12.02;5.18;;;;;;;;;;5023625;28;20041;-76
2022/04/16 08:30:31;;;;;;;9.45;4.50;;;;;;;;;;5024886;28;20034;-77
2022/04/16 08:32:57;;;;;;;7.93;4.20;;;;;;;;;;5002054;28;20121;-77
2022/04/16 08:35:23;;;;;;;8.32;4.45;;;;;;;;;;5022621;28;20130;-74
2022/04/16 08:37:50;;;;;;;11.13;4.47;;;;;;;;;;5024368;28;20083;-77
2022/04/16 08:40:16;;;;;;;12.38;4.72;;;;;;;;;;5024285;28;20049;-76
2022/04/16 08:42:44;;;;;;;9.30;4.32;;;;;;;;;;5027107;28;20034;-76
2022/04/16 08:45:11;;;;;;;6.78;3.65;;;;;;;;;;5023317;28;20118;-76
2022/04/16 08:47:38;;;;;;;8.88;4.88;;;;;;;;;;5028850;28;20687;-76
2022/04/16 08:50:06;;;;;;;11.95;5.20;;;;;;;;;;5025735;28;20587;-76
2022/04/16 08:52:32;;;;;;;10.25;4.57;;;;;;;;;;5026390;28;20069;-76
2022/04/16 08:54:59;;;;;;;9.88;4.78;;;;;;;;;;5028930;28;20120;-76
2022/04/16 08:57:25;;;;;;;10.65;3.60;;;;;;;;;;5022858;28;20472;-76
2022/04/16 08:59:52;;;;;;;10.40;4.40;;;;;;;;;;5023595;28;20057;-76
2022/04/16 09:02:19;;;;;;;9.23;4.40;;;;;;;;;;4997741;28;20084;-76
2022/04/16 09:04:45;;;;;;;10.13;4.45;;;;;;;;;;5024679;28;20056;-75
2022/04/16 09:07:11;;;;;;;8.02;4.18;;;;;;;;;;5026572;28;20061;-76
2022/04/16 09:09:37;;;;;;;7.70;3.55;;;;;;;;;;5024847;28;20079;-76
2022/04/16 09:12:03;;;;;;;10.80;4.68;;;;;;;;;;5021424;28;20079;-76
2022/04/16 09:14:36;;;;;;;9.13;3.97;;;;;;;;;;5028453;28;20644;-76
2022/04/16 09:17:02;;;;;;;9.40;4.00;;;;;;;;;;5022020;28;20483;-76
2022/04/16 09:19:31;;;;;;;8.93;3.97;;;;;;;;;;5013762;28;20871;-76
2022/04/16 09:21:58;;;;;;;7.72;3.50;;;;;;;;;;5027356;28;20732;-76
2022/04/16 09:24:24;;;;;;;10.38;3.80;;;;;;;;;;5026495;28;20398;-76
2022/04/16 09:26:50;;;;;;;8.88;4.18;;;;;;;;;;5022146;28;20045;-76
2022/04/16 09:29:17;;;;;;;7.30;4.15;;;;;;;;;;5021443;28;20088;-76
2022/04/16 09:31:46;;;;;;;10.50;3.92;;;;;;;;;;5019567;28;20034;-76
2022/04/16 09:34:25;;;;;;;6.55;3.38;;;;;;;;;;5015871;28;20414;-76
2022/04/16 09:36:52;;;;;;;9.50;4.60;;;;;;;;;;5017443;28;20089;-76
2022/04/16 09:39:22;;;;;;;13.35;4.60;;;;;;;;;;5021373;28;20040;-76
2022/04/16 09:41:51;;;;;;;9.00;3.10;;;;;;;;;;5013727;28;20026;-76
2022/04/16 09:44:18;;;;;;;8.98;4.05;;;;;;;;;;5031725;28;20040;-76
2022/04/16 09:46:45;;;;;;;5.30;3.08;;;;;;;;;;5026860;28;20039;-76
2022/04/16 09:49:12;;;;;;;10.40;3.60;;;;;;;;;;5031870;28;20575;-76
2022/04/16 09:51:41;;;;;;;8.05;3.63;;;;;;;;;;5031003;28;20038;-76
2022/04/16 09:54:07;;;;;;;9.20;3.10;;;;;;;;;;5028035;28;20037;-76
2022/04/16 09:56:37;;;;;;;8.13;3.00;;;;;;;;;;5026791;28;20033;-76
2022/04/16 09:59:04;;;;;;;6.28;2.88;;;;;;;;;;5022772;28;20057;-76
2022/04/16 10:01:31;;;;;;;12.50;4.15;;;;;;;;;;5031358;28;20034;-76
2022/04/16 10:03:58;;;;;;;8.13;3.45;;;;;;;;;;5028078;28;20038;-76
2022/04/16 10:06:25;;;;;;;11.90;3.50;;;;;;;;;;5023885;28;20036;-76
2022/04/16 10:08:51;;;;;;;11.63;3.53;;;;;;;;;;5029041;28;20478;-76
2022/04/16 10:11:41;;;;;;;12.63;3.10;;;;;;;;;;5024405;28;20061;-76
2022/04/16 10:14:11;;;;;;;7.95;3.10;;;;;;;;;;5022558;28;20069;-75
2022/04/16 10:16:41;;;;;;;8.13;3.33;;;;;;;;;;5028094;28;20034;-76
2022/04/16 10:19:16;;;;;;;8.38;3.00;;;;;;;;;;5028867;28;20030;-76
2022/04/16 10:21:43;;;;;;;7.70;3.50;;;;;;;;;;5029183;28;20026;-76
2022/04/16 10:24:09;;;;;;;9.05;3.63;;;;;;;;;;5024774;28;20081;-76
2022/04/16 10:26:39;;;;;;;6.35;2.92;;;;;;;;;;5024572;28;20456;-76
2022/04/16 10:29:05;;;;;;;7.47;2.92;;;;;;;;;;5021735;28;20029;-76
2022/04/16 10:31:33;;;;;;;6.78;3.40;;;;;;;;;;5022571;28;20041;-76
2022/04/16 10:34:20;;;;;;;8.82;3.30;;;;;;;;;;5027709;28;20160;-76
2022/04/16 10:36:48;;;;;;;6.85;2.83;;;;;;;;;;5016113;28;20034;-76
2022/04/16 10:39:15;;;;;;;6.38;2.88;;;;;;;;;;5025096;28;20034;-76
2022/04/16 10:41:52;;;;;;;6.78;3.17;;;;;;;;;;5024289;28;20044;-76
2022/04/16 10:44:18;;;;;;;7.80;2.60;;;;;;;;;;5024993;28;20155;-75
2022/04/16 10:46:46;;;;;;;5.85;2.42;;;;;;;;;;5012200;28;20140;-76
2022/04/16 10:49:13;;;;;;;6.00;2.25;;;;;;;;;;5018429;28;20044;-76
2022/04/16 10:51:39;;;;;;;9.77;2.67;;;;;;;;;;5023808;28;20073;-76
2022/04/16 10:54:09;;;;;;;7.18;2.67;;;;;;;;;;5020224;28;20045;-76
2022/04/16 10:56:39;;;;;;;9.85;3.15;;;;;;;;;;5020673;28;20041;-76
2022/04/16 10:59:06;;;;;;;6.68;2.70;;;;;;;;;;5021742;28;20033;-76
2022/04/16 11:01:31;;;;;;;13.60;2.85;;;;;;;;;;5023064;28;20034;-76
2022/04/16 11:03:57;;;;;;;6.30;2.63;;;;;;;;;;5024734;28;20373;-76
2022/04/16 11:06:34;;;;;;;6.90;2.10;;;;;;;;;;5024150;28;20040;-76
2022/04/16 11:09:00;;;;;;;6.78;2.33;;;;;;;;;;5025354;28;20356;-76
2022/04/16 11:11:26;;;;;;;6.25;2.55;;;;;;;;;;5020476;28;20120;-76
2022/04/16 11:13:52;;;;;;;8.75;2.20;;;;;;;;;;5024722;28;20044;-76
2022/04/16 11:16:24;;;;;;;5.38;2.50;;;;;;;;;;5015673;28;20091;-76
2022/04/16 11:18:50;;;;;;;5.47;2.25;;;;;;;;;;5028113;28;20033;-76
2022/04/16 11:21:23;;;;;;;6.10;1.80;;;;;;;;;;5026001;28;20034;-76
2022/04/16 11:23:51;;;;;;;10.73;2.17;;;;;;;;;;5020583;28;20053;-76
2022/04/16 11:34:42;;;;;;;5.63;2.08;;;;;;;;;;5023542;28;20064;-76
2022/04/16 11:37:08;;;;;;;4.78;2.00;;;;;;;;;;5017569;28;20025;-75
2022/04/16 11:39:35;;;;;;;7.70;2.00;;;;;;;;;;5030085;28;20865;-76
2022/04/16 11:42:10;;;;;;;7.13;2.58;;;;;;;;;;5024640;28;20128;-76
2022/04/16 11:44:41;;;;;;;5.47;1.85;;;;;;;;;;5013294;28;20080;-76
2022/04/16 11:47:20;;;;;;;7.97;2.25;;;;;;;;;;5015024;28;20026;-76
2022/04/16 11:49:53;;;;;;;5.43;1.48;;;;;;;;;;5024799;28;20071;-76
2022/04/16 11:52:26;;;;;;;5.22;2.08;;;;;;;;;;5022595;28;20759;-76
2022/04/16 11:55:11;;;;;;;9.20;2.22;;;;;;;;;;5010155;28;20042;-76
2022/04/16 11:57:37;;;;;;;8.02;2.20;;;;;;;;;;5023964;28;20808;-76
2022/04/16 12:00:07;;;;;;;5.68;1.98;;;;;;;;;;5021055;28;20069;-76
2022/04/16 12:02:38;;;;;;;6.30;1.83;;;;;;;;;;5020971;28;20029;-76
2022/04/16 12:05:10;;;;;;;6.20;1.70;;;;;;;;;;5027563;28;20049;-76
2022/04/16 12:07:37;;;;;;;5.63;2.03;;;;;;;;;;5029569;28;20482;-76
2022/04/16 12:10:05;;;;;;;7.43;1.80;;;;;;;;;;5020195;28;20037;-76
2022/04/16 12:12:40;;;;;;;9.85;1.95;;;;;;;;;;5024663;28;20033;-76
2022/04/16 12:15:07;;;;;;;7.72;1.33;;;;;;;;;;5026168;28;20041;-76
2022/04/16 12:17:34;;;;;;;3.47;1.25;;;;;;;;;;5023844;28;20022;-76
2022/04/16 12:20:04;;;;;;;4.65;1.60;;;;;;;;;;5017322;28;20038;-76
2022/04/16 12:22:30;;;;;;;4.72;1.27;;;;;;;;;;5022819;28;20034;-76
2022/04/16 12:25:06;;;;;;;5.43;1.80;;;;;;;;;;5018856;28;20077;-76
2022/04/16 12:27:32;;;;;;;5.78;1.63;;;;;;;;;;5016758;28;20681;-76
2022/04/16 12:29:59;;;;;;;4.22;1.30;;;;;;;;;;5031691;28;20143;-76
2022/04/16 12:32:28;;;;;;;7.18;1.80;;;;;;;;;;5020101;28;20103;-76
2022/04/16 12:34:55;;;;;;;3.92;1.30;;;;;;;;;;5024975;28;20139;-76
2022/04/16 12:37:22;;;;;;;6.85;1.77;;;;;;;;;;5023179;28;20034;-76
2022/04/16 12:39:49;;;;;;;5.82;1.30;;;;;;;;;;5026434;28;20076;-76
2022/04/16 12:42:15;;;;;;;9.15;1.50;;;;;;;;;;5016835;28;20042;-76
2022/04/16 12:44:41;;;;;;;6.05;1.38;;;;;;;;;;5022744;28;20448;-76
2022/04/16 12:47:07;;;;;;;4.38;1.27;;;;;;;;;;5025482;28;20037;-76
2022/04/16 12:49:33;;;;;;;4.65;1.42;;;;;;;;;;5025169;28;20112;-76
2022/04/16 12:51:59;;;;;;;6.43;1.45;;;;;;;;;;5025933;28;20052;-76
2022/04/16 12:54:26;;;;;;;3.95;1.50;;;;;;;;;;5020429;28;20072;-76
2022/04/16 12:56:52;;;;;;;5.07;1.30;;;;;;;;;;5025477;28;20037;-76
2022/04/16 12:59:18;;;;;;;4.85;1.33;;;;;;;;;;5016896;28;20056;-76
2022/04/16 13:01:44;;;;;;;6.60;1.58;;;;;;;;;;5018605;28;20136;-76
2022/04/16 13:04:10;;;;;;;4.65;1.25;;;;;;;;;;5020760;28;20068;-76
2022/04/16 13:06:36;;;;;;;4.97;1.13;;;;;;;;;;5025335;28;20036;-73
2022/04/16 13:09:02;;;;;;;6.43;1.75;;;;;;;;;;5027937;28;20029;-76
2022/04/16 13:11:28;;;;;;;4.53;1.27;;;;;;;;;;5023200;28;20103;-76
2022/04/16 13:13:54;;;;;;;4.70;1.10;;;;;;;;;;5022515;28;20099;-76
2022/04/16 13:16:21;;;;;;;5.47;1.42;;;;;;;;;;5023888;28;20095;-76
2022/04/16 13:18:48;;;;;;;11.40;1.50;;;;;;;;;;5019369;28;20049;-74
2022/04/16 13:21:15;;;;;;;9.82;1.20;;;;;;;;;;5025780;28;20064;-76
2022/04/16 13:23:41;;;;;;;7.50;1.35;;;;;;;;;;5017665;28;20040;-76
2022/04/16 13:26:08;;;;;;;6.25;1.48;;;;;;;;;;5020473;28;20041;-76
2022/04/16 13:28:34;;;;;;;5.40;1.35;;;;;;;;;;5019707;28;20033;-76
2022/04/16 13:30:59;;;;;;;4.00;1.20;;;;;;;;;;5018919;28;20459;-76
2022/04/16 13:33:26;;;;;;;5.32;1.33;;;;;;;;;;5020079;28;20113;-76
2022/04/16 13:35:52;;;;;;;4.57;1.40;;;;;;;;;;5015931;28;20200;-76
2022/04/16 13:38:18;;;;;;;6.03;1.00;;;;;;;;;;5022069;28;20476;-76
2022/04/16 13:43:29;;;;;;;3.70;1.27;;;;;;;;;;5018834;28;20100;-76
2022/04/16 13:45:55;;;;;;;4.53;1.20;;;;;;;;;;5013250;28;20061;-76
2022/04/16 13:48:22;;;;;;;4.25;1.33;;;;;;;;;;5016817;28;20034;-76
2022/04/16 13:50:48;;;;;;;5.85;1.13;;;;;;;;;;4997511;28;20045;-76
2022/04/16 13:53:14;;;;;;;6.03;1.17;;;;;;;;;;5016099;28;20149;-76
2022/04/16 13:55:40;;;;;;;7.28;1.35;;;;;;;;;;5016563;28;20113;-76
2022/04/16 13:58:07;;;;;;;5.63;1.52;;;;;;;;;;5022876;28;20038;-76
2022/04/16 14:00:33;;;;;;;3.13;0.90;;;;;;;;;;5022039;28;20714;-76
2022/04/16 14:02:59;;;;;;;6.43;1.13;;;;;;;;;;5025305;28;20034;-76
2022/04/16 14:05:43;;;;;;;7.78;1.60;;;;;;;;;;5021725;28;20041;-76
2022/04/16 14:08:09;;;;;;;3.67;0.90;;;;;;;;;;5021175;28;20046;-76
2022/04/16 14:10:35;;;;;;;7.05;1.25;;;;;;;;;;5022106;28;20037;-76
2022/04/16 14:13:01;;;;;;;9.38;1.30;;;;;;;;;;5013432;28;20526;-76
2022/04/16 14:15:27;;;;;;;4.03;1.00;;;;;;;;;;5002384;28;20076;-76
2022/04/16 14:17:56;;;;;;;5.38;0.90;;;;;;;;;;5017248;28;20038;-76
2022/04/16 14:20:22;;;;;;;4.55;1.27;;;;;;;;;;5023351;28;20029;-76
2022/04/16 14:22:48;;;;;;;3.45;0.90;;;;;;;;;;5022095;28;20049;-76
2022/04/16 14:25:14;;;;;;;5.70;1.10;;;;;;;;;;5019362;28;20565;-76
2022/04/16 14:27:41;;;;;;;5.60;1.40;;;;;;;;;;5016102;28;20079;-76
2022/04/16 14:30:07;;;;;;;3.70;1.17;;;;;;;;;;5017192;28;20041;-76
2022/04/16 14:32:33;;;;;;;3.35;1.00;;;;;;;;;;5016040;28;20034;-76
2022/04/16 14:34:59;;;;;;;6.75;1.08;;;;;;;;;;5018685;28;20056;-76
2022/04/16 14:37:26;;;;;;;4.80;1.10;;;;;;;;;;5020769;28;20092;-76
2022/04/16 14:39:52;;;;;;;3.03;1.00;;;;;;;;;;5016907;28;20030;-76
2022/04/16 14:42:18;;;;;;;4.38;0.90;;;;;;;;;;5023680;28;20032;-76
2022/04/16 14:44:51;;;;;;;5.82;0.90;;;;;;;;;;5020346;28;20038;-76
2022/04/16 14:47:17;;;;;;;5.45;0.90;;;;;;;;;;5019018;28;20490;-76
2022/04/16 14:49:43;;;;;;;5.10;1.10;;;;;;;;;;5017194;28;20887;-76
2022/04/16 14:52:09;;;;;;;4.63;1.00;;;;;;;;;;5022439;28;20029;-76
2022/04/16 14:54:35;;;;;;;5.03;1.00;;;;;;;;;;5022389;28;20040;-76
2022/04/16 14:57:01;;;;;;;3.88;0.90;;;;;;;;;;5022614;28;20038;-76
2022/04/16 14:59:27;;;;;;;3.72;0.90;;;;;;;;;;5023149;28;20042;-76
2022/04/16 15:01:53;;;;;;;5.38;0.80;;;;;;;;;;5022190;28;20153;-75